Bighorn, Montana
Current Conditions -  °F | °C
As of 2:53 PM on Friday 28 Nov 2014 (Local Time) from KBIL Reporting Station
Broken Clouds Broken Clouds  
Wind Chill: 57°   Ceiling: 24000
Heat Index: 57°   Visibility: 10mi
Dew Point: 28°   Wind: 18mph
Humidity: 33%   Direction: 250°WSW
Pressure: 29.52"   Gusts: 30mph
Location:  46.16°N, 107.45°W
Report Text: KBIL 282153Z 25016G26KT 10SM SCT110 SCT150 BKN240 14/M02 A2952 RMK AO2 PK WND 26026/2150 WSHFT 2101 SLP985 ACSL ALQDS SHRA DSNT SW-W T01391022
Loading
Personal Weather Stations






























Interactive Weather Map New forecast layout! Learn more

10-Day Weather Forecast

Advertisements
Track Severe Weather on mobile